createdAt,value
2022-10-28T06:13:47.462Z,100646.75
2022-10-28T06:16:15.513Z,100608.75
2022-10-28T06:18:43.695Z,100627.88
2022-10-28T06:21:11.711Z,100649.69
2022-10-28T06:23:40.430Z,100602.28
2022-10-28T06:26:09.308Z,100635.94
2022-10-28T06:28:39.926Z,100637.53
2022-10-28T06:31:11.626Z,100641.84
2022-10-28T06:34:07.105Z,100631.59
2022-10-28T06:36:35.072Z,100612.50
2022-10-28T06:42:11.663Z,100635.09
2022-10-28T06:44:39.689Z,100648.34
2022-10-28T06:47:10.784Z,100618.16
2022-10-28T06:49:38.741Z,100636.75
2022-10-28T06:52:06.636Z,100645.91
2022-10-28T06:54:35.378Z,100616.53
2022-10-28T06:57:03.353Z,100609.00
2022-10-28T06:59:31.470Z,100628.41
2022-10-28T07:01:59.469Z,100614.38
2022-10-28T07:04:29.147Z,100632.97
2022-10-28T07:06:57.499Z,100654.00
2022-10-28T07:09:25.563Z,100641.88
2022-10-28T07:11:55.106Z,100629.72
2022-10-28T07:14:23.785Z,100661.25
2022-10-28T07:16:51.735Z,100656.69
2022-10-28T07:19:22.573Z,100639.19
2022-10-28T07:21:52.105Z,100636.19
2022-10-28T07:24:20.853Z,100652.13
2022-10-28T07:26:51.966Z,100656.94
2022-10-28T07:29:22.737Z,100653.75
2022-10-28T07:31:50.861Z,100626.78
2022-10-28T07:34:25.966Z,100678.00
2022-10-28T07:36:57.539Z,100682.31
2022-10-28T07:39:26.175Z,100657.56
2022-10-28T07:41:54.163Z,100670.47
2022-10-28T07:44:22.105Z,100700.63
2022-10-28T07:46:54.246Z,100644.38
2022-10-28T07:49:25.798Z,100679.38
2022-10-28T07:51:54.765Z,100667.59
2022-10-28T07:54:24.928Z,100687.25
2022-10-28T07:56:54.850Z,100695.56
2022-10-28T07:59:26.557Z,100668.41
2022-10-28T08:01:55.479Z,100665.44
2022-10-28T08:04:30.938Z,100662.75
2022-10-28T08:49:33.515Z,100692.69
2022-10-28T08:52:07.528Z,100652.06
2022-10-28T08:54:41.382Z,100703.75
2022-10-28T08:57:18.914Z,100695.91
2022-10-28T08:59:47.694Z,100666.59
2022-10-28T09:02:22.537Z,100682.47
2022-10-28T09:04:57.648Z,100701.84
2022-10-28T09:07:26.649Z,100659.84
2022-10-28T09:09:55.131Z,100672.25
2022-10-28T09:12:37.163Z,100695.91
2022-10-28T09:15:19.348Z,100702.91
2022-10-28T09:17:54.799Z,100686.78
2022-10-28T09:20:32.999Z,100706.41
2022-10-28T09:23:09.709Z,100722.81
2022-10-28T09:25:48.951Z,100727.97
2022-10-28T09:30:58.394Z,100745.97
2022-10-28T09:33:59.495Z,100740.56
2022-10-28T09:36:35.221Z,100743.75
2022-10-28T09:39:04.808Z,100690.47
2022-10-28T09:41:35.301Z,100718.72
2022-10-28T09:44:13.500Z,100748.56
2022-10-28T09:46:42.015Z,100739.91
2022-10-28T09:49:18.103Z,100736.66
2022-10-28T09:51:57.204Z,100733.94
2022-10-28T09:54:33.356Z,100677.69
2022-10-28T09:57:02.073Z,100720.94
2022-10-28T09:59:29.984Z,100720.31
2022-10-28T10:02:00.745Z,100709.53
2022-10-28T10:04:31.687Z,100726.25
2022-10-28T10:07:07.287Z,100704.72
2022-10-28T10:09:39.177Z,100733.97
2022-10-28T10:12:10.244Z,100712.13
2022-10-28T10:14:44.185Z,100740.06
2022-10-28T10:17:17.946Z,100749.72
2022-10-28T10:20:00.893Z,100698.59
2022-10-28T10:22:35.641Z,100749.09
2022-10-28T10:25:04.223Z,100718.94
2022-10-28T10:27:36.353Z,100737.66
2022-10-28T10:30:23.688Z,100723.38
2022-10-28T10:32:54.244Z,100695.53
2022-10-28T10:35:26.549Z,100703.72
2022-10-28T10:37:59.263Z,100704.50
2022-10-28T10:40:32.554Z,100706.94
2022-10-28T10:43:26.581Z,100734.97
2022-10-28T10:46:06.084Z,100690.25
2022-10-28T10:48:37.442Z,100695.66
2022-10-28T10:51:11.344Z,100706.41
2022-10-28T10:53:41.653Z,100734.56
2022-10-28T10:56:14.279Z,100745.63
2022-10-28T10:58:52.225Z,100712.81
2022-10-28T11:01:27.238Z,100763.28
2022-10-28T11:04:03.220Z,100708.97
2022-10-28T11:06:36.910Z,100707.31
2022-10-28T11:09:22.419Z,100730.34
2022-10-28T11:11:53.946Z,100715.06
2022-10-28T11:14:26.944Z,100715.00
2022-10-28T11:16:59.449Z,100765.72
2022-10-28T11:19:31.300Z,100759.03
2022-10-28T11:22:22.925Z,100742.41
2022-10-28T11:25:12.557Z,100748.00
2022-10-28T11:27:56.326Z,100775.38
2022-10-28T11:30:39.045Z,100742.88
2022-10-28T11:33:29.486Z,100714.97
2022-10-28T11:36:09.438Z,100746.41
2022-10-28T11:38:51.650Z,100776.19
2022-10-28T11:41:37.042Z,100752.81
2022-10-28T11:44:28.192Z,100719.53
2022-10-28T11:47:08.759Z,100727.38
2022-10-28T11:50:03.806Z,100752.66
2022-10-28T11:52:45.645Z,100729.22
2022-10-28T11:55:28.320Z,100751.22
2022-10-28T11:58:10.983Z,100761.47
2022-10-28T12:01:05.430Z,100766.06
2022-10-28T12:04:07.296Z,100752.88
2022-10-28T12:06:52.694Z,100770.69
2022-10-28T12:09:30.521Z,100729.53
2022-10-28T12:12:16.897Z,100729.03
2022-10-28T12:14:59.124Z,100767.78
2022-10-28T12:17:35.277Z,100743.34
2022-10-28T12:20:13.281Z,100790.09
2022-10-28T12:22:53.148Z,100751.41
2022-10-28T12:25:26.785Z,100746.66
2022-10-28T12:28:03.634Z,100724.56
2022-10-28T12:30:40.097Z,100773.50
2022-10-28T12:33:16.182Z,100741.63
2022-10-28T12:35:53.184Z,100801.56
2022-10-28T12:38:29.340Z,100778.50
2022-10-28T12:41:05.764Z,100815.63
2022-10-28T12:43:41.556Z,100762.41
2022-10-28T12:46:24.731Z,100762.41
2022-10-28T12:49:08.782Z,100812.16
2022-10-28T12:51:41.187Z,100799.47
2022-10-28T12:54:29.131Z,100804.63
2022-10-28T12:57:06.594Z,100773.75
2022-10-28T12:59:45.544Z,100786.41
2022-10-28T13:02:23.765Z,100787.22
2022-10-28T13:04:57.016Z,100770.50
2022-10-28T13:08:04.117Z,100770.47
2022-10-28T13:10:45.926Z,100784.22
2022-10-28T13:13:38.762Z,100787.13
2022-10-28T13:16:37.575Z,100834.50
2022-10-28T13:19:48.098Z,100785.00
2022-10-28T13:22:57.602Z,100787.13
2022-10-28T13:25:54.615Z,100788.72
2022-10-28T13:28:25.567Z,100827.84
2022-10-28T13:30:56.061Z,100783.81
2022-10-28T13:34:27.509Z,100781.41
2022-10-28T13:37:03.553Z,100823.59
2022-10-28T13:39:45.781Z,100773.00
2022-10-28T13:42:49.809Z,100827.84
2022-10-28T13:45:51.630Z,100831.06
2022-10-28T13:48:50.980Z,100836.75
2022-10-28T13:51:49.164Z,100789.84
2022-10-28T13:54:34.220Z,100806.53
2022-10-28T13:57:14.063Z,100798.97
2022-10-28T13:59:55.809Z,100851.38
2022-10-28T14:02:39.414Z,100791.16
2022-10-28T14:05:12.325Z,100848.97
2022-10-28T14:08:03.279Z,100813.84
2022-10-28T14:11:06.481Z,100800.59
2022-10-28T14:14:06.235Z,100786.56
2022-10-28T14:16:50.100Z,100794.94
2022-10-28T14:19:41.815Z,100801.13
2022-10-28T14:22:13.256Z,100831.81
2022-10-28T14:27:43.490Z,100816.84
2022-10-28T14:30:29.971Z,100801.97
2022-10-28T14:33:19.278Z,100845.06
2022-10-28T14:35:53.130Z,100810.88
2022-10-28T14:38:59.613Z,100866.84
2022-10-28T14:41:57.090Z,100802.28
2022-10-28T14:44:43.192Z,100841.84
2022-10-28T14:50:03.063Z,100879.56
2022-10-28T14:52:34.914Z,100851.28
2022-10-28T14:55:42.516Z,100871.16
2022-10-28T14:58:22.213Z,100810.09
2022-10-28T15:01:08.326Z,100833.78
2022-10-28T15:03:42.234Z,100858.28
2022-10-28T15:06:41.375Z,100879.81
2022-10-28T15:09:21.995Z,100850.00
2022-10-28T15:11:57.797Z,100849.75
2022-10-28T15:14:43.943Z,100825.53
2022-10-28T15:17:16.467Z,100861.63
2022-10-28T15:19:55.430Z,100834.19
2022-10-28T15:22:28.954Z,100881.56
2022-10-28T15:25:06.998Z,100827.78
2022-10-28T15:27:51.770Z,100827.31
2022-10-28T15:30:24.554Z,100837.81
2022-10-28T15:32:56.018Z,100836.25
2022-10-28T15:40:53.996Z,100859.78
2022-10-28T15:46:12.244Z,100858.78
2022-10-28T15:48:40.904Z,100865.22
2022-10-28T15:53:54.001Z,100876.03
2022-10-28T15:56:40.219Z,100861.03
2022-10-28T15:59:20.189Z,100850.75
2022-10-28T16:01:50.842Z,100858.84
2022-10-28T16:04:46.951Z,100913.25
2022-10-28T16:15:23.419Z,100886.94
2022-10-28T16:17:52.900Z,100862.97
2022-10-28T16:23:04.850Z,100914.94
2022-10-28T16:25:32.855Z,100893.66
